createdAt,value
2022-08-20T00:00:32.718Z,0.00
2022-08-20T00:00:51.298Z,0.00
2022-08-20T00:01:22.319Z,0.00
2022-08-20T00:01:53.354Z,0.00
2022-08-20T00:02:24.337Z,0.00
2022-08-20T00:02:56.335Z,0.00
2022-08-20T00:03:26.362Z,0.00
2022-08-20T00:03:57.364Z,0.00
2022-08-20T00:04:28.302Z,0.00
2022-08-20T00:04:59.310Z,0.00
2022-08-20T00:05:30.359Z,0.00
2022-08-20T00:06:01.374Z,0.00
2022-08-20T00:06:32.297Z,0.00
2022-08-20T00:07:03.340Z,0.00
2022-08-20T00:07:34.291Z,0.00
2022-08-20T00:08:06.313Z,0.00
2022-08-20T00:08:36.295Z,0.00
2022-08-20T00:09:07.363Z,0.00
2022-08-20T00:09:38.307Z,0.00
2022-08-20T00:10:09.402Z,0.00
2022-08-20T00:10:40.277Z,0.00
2022-08-20T00:11:11.305Z,0.00
2022-08-20T00:11:42.465Z,0.00
2022-08-20T00:12:13.306Z,0.00
2022-08-20T00:12:44.300Z,0.00
2022-08-20T00:13:18.126Z,0.00
2022-08-20T00:13:46.343Z,0.00
2022-08-20T00:14:17.283Z,0.00
2022-08-20T00:14:48.316Z,0.00
2022-08-20T00:15:31.656Z,0.00
2022-08-20T00:15:50.345Z,0.00
2022-08-20T00:16:21.318Z,0.00
2022-08-20T00:16:52.320Z,0.00
2022-08-20T00:17:23.317Z,0.00
2022-08-20T00:17:54.489Z,0.00
2022-08-20T00:18:26.285Z,0.00
2022-08-20T00:18:56.331Z,0.00
2022-08-20T00:19:27.373Z,0.00
2022-08-20T00:19:58.279Z,0.00
2022-08-20T00:20:29.295Z,0.00
2022-08-20T00:21:00.495Z,0.00
2022-08-20T00:21:31.411Z,0.00
2022-08-20T00:22:02.445Z,0.00
2022-08-20T00:22:33.294Z,0.00
2022-08-20T00:23:07.323Z,0.00
2022-08-20T00:23:36.287Z,0.00
2022-08-20T00:24:06.319Z,0.00
2022-08-20T00:24:37.299Z,0.00
2022-08-20T00:25:08.328Z,0.00
2022-08-20T00:25:39.299Z,0.00
2022-08-20T00:26:10.349Z,0.00
2022-08-20T00:26:51.727Z,0.00
2022-08-20T00:27:12.370Z,0.00
2022-08-20T00:27:43.331Z,0.00
2022-08-20T00:28:14.289Z,0.00
2022-08-20T00:28:46.319Z,0.00
2022-08-20T00:29:16.294Z,0.00
2022-08-20T00:29:47.302Z,0.00
2022-08-20T00:30:30.665Z,0.00
2022-08-20T00:30:49.352Z,0.00
2022-08-20T00:31:20.309Z,0.00
2022-08-20T00:31:51.360Z,0.00
2022-08-20T00:32:22.368Z,0.00
2022-08-20T00:32:53.300Z,0.00
2022-08-20T00:33:24.299Z,0.00
2022-08-20T00:33:56.301Z,0.00
2022-08-20T00:34:26.260Z,0.00
2022-08-20T00:34:57.377Z,0.00
2022-08-20T00:35:28.286Z,0.00
2022-08-20T00:35:59.303Z,0.00
2022-08-20T00:36:32.315Z,0.00
2022-08-20T00:37:01.317Z,0.00
2022-08-20T00:37:32.337Z,0.00
2022-08-20T00:38:03.443Z,0.00
2022-08-20T00:38:34.306Z,0.00
2022-08-20T00:39:06.286Z,0.00
2022-08-20T00:39:36.376Z,0.00
2022-08-20T00:40:07.391Z,0.00
2022-08-20T00:40:38.275Z,0.00
2022-08-20T00:41:09.306Z,0.00
2022-08-20T00:41:40.283Z,0.00
2022-08-20T00:42:11.319Z,0.00
2022-08-20T00:42:42.370Z,0.00
2022-08-20T00:43:13.286Z,0.00
2022-08-20T00:43:44.462Z,0.00
2022-08-20T00:44:16.300Z,0.00
2022-08-20T00:44:46.347Z,0.00
2022-08-20T00:45:29.644Z,0.00
2022-08-20T00:45:48.302Z,0.00
2022-08-20T00:46:19.285Z,0.00
2022-08-20T00:46:50.317Z,0.00
2022-08-20T00:47:21.291Z,0.00
2022-08-20T00:47:52.355Z,0.00
2022-08-20T00:48:23.278Z,0.00
2022-08-20T00:48:54.316Z,0.00
2022-08-20T00:49:26.280Z,0.00
2022-08-20T00:49:56.344Z,0.00
2022-08-20T00:50:27.329Z,0.00
2022-08-20T00:50:58.283Z,0.00
2022-08-20T00:51:29.905Z,0.00
2022-08-20T00:52:00.338Z,0.00
2022-08-20T00:52:31.297Z,0.00
2022-08-20T00:53:02.498Z,0.00
2022-08-20T00:53:33.312Z,0.00
2022-08-20T00:54:04.308Z,0.00
2022-08-20T00:54:36.292Z,0.00
2022-08-20T00:55:06.345Z,0.00
2022-08-20T00:55:37.341Z,0.00
2022-08-20T00:56:08.326Z,0.00
2022-08-20T00:56:39.288Z,0.00
2022-08-20T00:57:10.298Z,0.00
2022-08-20T00:57:59.858Z,0.00
2022-08-20T00:58:12.397Z,0.00
2022-08-20T00:58:43.301Z,0.00
2022-08-20T00:59:14.314Z,0.00
2022-08-20T00:59:46.314Z,0.00
2022-08-20T01:00:32.699Z,0.00
2022-08-20T01:00:49.361Z,0.00
2022-08-20T01:01:18.507Z,0.00
2022-08-20T01:01:55.288Z,0.00
2022-08-20T01:02:20.502Z,0.00
2022-08-20T01:02:51.506Z,0.00
2022-08-20T01:03:22.292Z,0.00
2022-08-20T01:04:06.542Z,0.00
2022-08-20T01:04:24.269Z,0.00
2022-08-20T01:05:05.230Z,0.00
2022-08-20T01:05:28.663Z,0.00
2022-08-20T01:05:57.386Z,0.00
2022-08-20T01:06:28.556Z,0.00
2022-08-20T01:06:59.359Z,0.00
2022-08-20T01:07:30.447Z,0.00
2022-08-20T01:08:01.478Z,0.00
2022-08-20T01:08:32.355Z,0.00
2022-08-20T01:09:03.436Z,0.00
2022-08-20T01:09:58.598Z,0.00
2022-08-20T01:10:06.425Z,0.00
2022-08-20T01:10:36.403Z,0.00
2022-08-20T01:11:07.325Z,0.00
2022-08-20T01:11:38.297Z,0.00
2022-08-20T01:12:09.333Z,0.00
2022-08-20T01:12:40.293Z,0.00
2022-08-20T01:13:11.377Z,0.00
2022-08-20T01:13:42.337Z,0.00
2022-08-20T01:14:13.256Z,0.00
2022-08-20T01:14:44.360Z,0.00
2022-08-20T01:15:30.709Z,0.00
2022-08-20T01:15:46.292Z,0.00
2022-08-20T01:16:17.594Z,0.00
2022-08-20T01:16:48.265Z,0.00
2022-08-20T01:17:19.283Z,0.00
2022-08-20T01:17:50.313Z,0.00
2022-08-20T01:18:21.317Z,0.00
2022-08-20T01:18:52.307Z,0.00
2022-08-20T01:19:29.218Z,0.00
2022-08-20T01:19:54.290Z,0.00
2022-08-20T01:20:26.277Z,0.00
2022-08-20T01:20:56.269Z,0.00
2022-08-20T01:21:27.319Z,0.00
2022-08-20T01:21:58.281Z,0.00
2022-08-20T01:22:29.285Z,0.00
2022-08-20T01:23:00.462Z,0.00
2022-08-20T01:23:31.352Z,0.00
2022-08-20T01:24:02.385Z,0.00
2022-08-20T01:24:33.305Z,0.00
2022-08-20T01:25:04.348Z,0.00
2022-08-20T01:25:36.368Z,0.00
2022-08-20T01:26:06.360Z,0.00
2022-08-20T01:26:37.321Z,0.00
2022-08-20T01:27:08.290Z,0.00
2022-08-20T01:27:41.875Z,0.00
2022-08-20T01:28:10.348Z,0.00
2022-08-20T01:28:41.291Z,0.00
2022-08-20T01:29:12.307Z,0.00
2022-08-20T01:29:43.322Z,0.00
2022-08-20T01:30:26.936Z,0.00
2022-08-20T01:30:46.281Z,0.00
2022-08-20T01:31:16.289Z,0.00
2022-08-20T01:31:47.289Z,0.00
2022-08-20T01:32:18.328Z,0.00
2022-08-20T01:32:49.291Z,0.00
2022-08-20T01:33:20.297Z,0.00
2022-08-20T01:33:51.315Z,0.00
2022-08-20T01:34:22.338Z,0.00
2022-08-20T01:34:53.293Z,0.00
2022-08-20T01:35:24.304Z,0.00
2022-08-20T01:35:56.308Z,0.00
2022-08-20T01:36:26.283Z,0.00
2022-08-20T01:36:57.369Z,0.00
2022-08-20T01:37:28.731Z,0.00
2022-08-20T01:37:59.267Z,0.00
2022-08-20T01:38:30.321Z,0.00
2022-08-20T01:39:01.335Z,0.00
2022-08-20T01:39:32.413Z,0.00
2022-08-20T01:40:03.493Z,0.00
2022-08-20T01:40:34.299Z,0.00
2022-08-20T01:41:06.373Z,0.00
2022-08-20T01:41:36.296Z,0.00
2022-08-20T01:42:07.384Z,0.00
2022-08-20T01:42:38.305Z,0.00
2022-08-20T01:43:09.927Z,0.00
2022-08-20T01:43:40.270Z,0.00
2022-08-20T01:44:11.293Z,0.00
2022-08-20T01:44:42.333Z,0.00
2022-08-20T01:45:27.759Z,0.00
2022-08-20T01:45:44.284Z,0.00
2022-08-20T01:46:16.289Z,0.00
2022-08-20T01:46:46.322Z,0.00
2022-08-20T01:47:17.265Z,0.00
2022-08-20T01:47:48.283Z,0.00
2022-08-20T01:48:19.261Z,0.00
2022-08-20T01:48:50.272Z,0.00
2022-08-20T01:49:23.174Z,0.00
2022-08-20T01:49:52.282Z,0.00
2022-08-20T01:50:23.299Z,0.00
2022-08-20T01:50:54.289Z,0.00
2022-08-20T01:51:26.297Z,0.00
2022-08-20T01:51:56.453Z,0.00
2022-08-20T01:52:27.319Z,0.00
2022-08-20T01:52:58.263Z,0.00
2022-08-20T01:53:29.295Z,0.00
2022-08-20T01:54:00.296Z,0.00
2022-08-20T01:54:31.319Z,0.00
2022-08-20T01:55:02.391Z,0.00
2022-08-20T01:55:33.316Z,0.00
2022-08-20T01:56:04.281Z,0.00
2022-08-20T01:56:36.389Z,0.00
2022-08-20T01:57:06.393Z,0.00
2022-08-20T01:57:37.299Z,0.00
2022-08-20T01:58:08.290Z,0.00
2022-08-20T01:58:39.275Z,0.00
2022-08-20T01:59:10.322Z,0.00
2022-08-20T01:59:41.327Z,0.00
2022-08-20T02:00:24.805Z,0.00
2022-08-20T02:00:43.363Z,0.00
2022-08-20T02:01:14.480Z,0.00
2022-08-20T02:01:47.114Z,0.00
2022-08-20T02:02:16.270Z,0.00
2022-08-20T02:02:47.307Z,0.00
2022-08-20T02:03:18.428Z,0.00
2022-08-20T02:03:49.334Z,0.00
2022-08-20T02:04:20.395Z,0.00
2022-08-20T02:04:51.326Z,0.00
2022-08-20T02:05:22.372Z,0.00
2022-08-20T02:05:53.451Z,0.00
2022-08-20T02:06:24.322Z,0.00
2022-08-20T02:06:57.702Z,0.00
2022-08-20T02:07:26.336Z,0.00
2022-08-20T02:07:57.348Z,0.00
2022-08-20T02:08:28.377Z,0.00
2022-08-20T02:08:59.336Z,0.00
2022-08-20T02:09:30.319Z,0.00
2022-08-20T02:10:01.390Z,0.00
2022-08-20T02:10:32.510Z,0.00
2022-08-20T02:11:03.359Z,0.00
2022-08-20T02:11:34.478Z,0.00
2022-08-20T02:12:06.419Z,0.00
2022-08-20T02:12:36.346Z,0.00
2022-08-20T02:13:07.316Z,0.00
2022-08-20T02:13:38.282Z,0.00
2022-08-20T02:14:09.342Z,0.00
2022-08-20T02:14:40.455Z,0.00
2022-08-20T02:15:30.833Z,0.00
2022-08-20T02:15:43.004Z,0.00
2022-08-20T02:16:13.281Z,0.00
2022-08-20T02:16:44.314Z,0.00
2022-08-20T02:17:16.322Z,0.00
2022-08-20T02:17:46.283Z,0.00
2022-08-20T02:18:17.278Z,0.00
2022-08-20T02:18:48.256Z,0.00
2022-08-20T02:19:19.264Z,0.00
2022-08-20T02:19:50.329Z,0.00
2022-08-20T02:20:21.274Z,0.00
2022-08-20T02:20:52.258Z,0.00
2022-08-20T02:21:23.309Z,0.00
2022-08-20T02:21:54.253Z,0.00
2022-08-20T02:22:26.336Z,0.00
2022-08-20T02:22:56.282Z,0.00
2022-08-20T02:23:27.351Z,0.00
2022-08-20T02:23:58.275Z,0.00
2022-08-20T02:24:29.247Z,0.00
2022-08-20T02:25:00.315Z,0.00
2022-08-20T02:25:31.260Z,0.00
2022-08-20T02:26:02.388Z,0.00
2022-08-20T02:26:33.464Z,0.00
2022-08-20T02:27:04.382Z,0.00
2022-08-20T02:27:36.331Z,0.00
2022-08-20T02:28:06.340Z,0.00
2022-08-20T02:28:37.325Z,0.00
2022-08-20T02:29:08.369Z,0.00
2022-08-20T02:29:39.321Z,0.00
2022-08-20T02:30:27.857Z,0.00
2022-08-20T02:30:41.387Z,0.00
2022-08-20T02:31:12.323Z,0.00
2022-08-20T02:32:23.572Z,0.00
2022-08-20T02:32:46.313Z,0.00
2022-08-20T02:33:16.313Z,0.00
2022-08-20T02:34:22.218Z,0.00
2022-08-20T02:34:49.285Z,0.00
2022-08-20T02:35:20.310Z,0.00
2022-08-20T02:35:51.372Z,0.00
2022-08-20T02:36:22.306Z,0.00
2022-08-20T02:36:53.542Z,0.00
2022-08-20T02:37:24.282Z,0.00
2022-08-20T02:37:56.527Z,0.00
2022-08-20T02:38:26.303Z,0.00
2022-08-20T02:38:57.293Z,0.00
2022-08-20T02:39:28.311Z,0.00
2022-08-20T02:39:59.313Z,0.00
2022-08-20T02:40:31.108Z,0.00
2022-08-20T02:41:01.264Z,0.00
2022-08-20T02:41:32.261Z,0.00
2022-08-20T02:42:03.326Z,0.00
2022-08-20T02:42:34.296Z,0.00
2022-08-20T02:43:06.306Z,0.00
2022-08-20T02:43:36.409Z,0.00
2022-08-20T02:44:07.284Z,0.00
2022-08-20T02:44:38.270Z,0.00
2022-08-20T02:45:21.637Z,0.00
2022-08-20T02:45:40.330Z,0.00
2022-08-20T02:46:11.291Z,0.00
2022-08-20T02:46:42.305Z,0.00
2022-08-20T02:47:13.245Z,0.00
2022-08-20T02:47:44.304Z,0.00
2022-08-20T02:48:16.302Z,0.00
2022-08-20T02:48:46.264Z,0.00
2022-08-20T02:49:17.283Z,0.00
2022-08-20T02:49:48.256Z,0.00
2022-08-20T02:50:19.262Z,0.00
2022-08-20T02:50:50.247Z,0.00
2022-08-20T02:51:30.303Z,0.00
2022-08-20T02:51:52.324Z,0.00
2022-08-20T02:52:23.389Z,0.00
2022-08-20T02:52:54.315Z,0.00
2022-08-20T02:53:26.337Z,0.00
2022-08-20T02:53:56.363Z,0.00
2022-08-20T02:54:27.313Z,0.00
2022-08-20T02:54:58.364Z,0.00
2022-08-20T02:55:29.352Z,0.00
2022-08-20T02:56:00.344Z,0.00
2022-08-20T02:56:31.321Z,0.00
2022-08-20T02:57:02.455Z,0.00
2022-08-20T02:57:33.416Z,0.00
2022-08-20T02:58:04.393Z,0.00
2022-08-20T02:58:36.315Z,0.00
2022-08-20T02:59:06.358Z,0.00
2022-08-20T02:59:37.515Z,0.00
2022-08-20T03:00:20.843Z,0.00
2022-08-20T03:00:39.365Z,0.00
2022-08-20T03:01:10.420Z,0.00
2022-08-20T03:01:41.421Z,0.00
2022-08-20T03:02:12.313Z,0.00
2022-08-20T03:02:43.253Z,0.00
2022-08-20T03:03:14.300Z,0.00
2022-08-20T03:03:46.347Z,0.00
2022-08-20T03:04:16.304Z,0.00
2022-08-20T03:04:47.241Z,0.00
2022-08-20T03:05:18.245Z,0.00
2022-08-20T03:05:49.256Z,0.00
2022-08-20T03:06:20.276Z,0.00
2022-08-20T03:06:51.262Z,0.00
2022-08-20T03:07:22.296Z,0.00
2022-08-20T03:07:53.435Z,0.00
2022-08-20T03:08:24.236Z,0.00
2022-08-20T03:08:56.306Z,0.00
2022-08-20T03:09:26.246Z,0.00
2022-08-20T03:09:57.246Z,0.00
2022-08-20T03:10:28.263Z,0.00
2022-08-20T03:10:59.268Z,0.00
2022-08-20T03:11:30.262Z,0.00
2022-08-20T03:12:01.345Z,0.00
2022-08-20T03:12:32.300Z,0.00
2022-08-20T03:13:03.297Z,0.00
2022-08-20T03:13:34.344Z,0.00
2022-08-20T03:14:06.283Z,0.00
2022-08-20T03:14:36.324Z,0.00
2022-08-20T03:15:19.753Z,0.00
2022-08-20T03:15:38.304Z,0.00
2022-08-20T03:16:09.264Z,0.00
2022-08-20T03:16:40.254Z,0.00
2022-08-20T03:17:11.295Z,0.00
2022-08-20T03:17:42.294Z,0.00
2022-08-20T03:18:13.269Z,0.00
2022-08-20T03:18:44.245Z,0.00
2022-08-20T03:19:16.266Z,0.00
2022-08-20T03:19:46.245Z,0.00
2022-08-20T03:20:17.294Z,0.00
2022-08-20T03:20:52.181Z,0.00
2022-08-20T03:21:19.295Z,0.00
2022-08-20T03:21:50.278Z,0.00
2022-08-20T03:22:21.479Z,0.00
2022-08-20T03:22:52.250Z,0.00
2022-08-20T03:23:23.248Z,0.00
2022-08-20T03:23:54.313Z,0.00
2022-08-20T03:24:26.253Z,0.00
2022-08-20T03:24:56.250Z,0.00
2022-08-20T03:25:27.279Z,0.00
2022-08-20T03:25:58.265Z,0.00
2022-08-20T03:26:29.221Z,0.00
2022-08-20T03:27:00.308Z,0.00
2022-08-20T03:27:33.013Z,0.00
2022-08-20T03:28:02.367Z,0.00
2022-08-20T03:28:33.245Z,0.00
2022-08-20T03:29:04.322Z,0.00
2022-08-20T03:29:36.267Z,0.00
2022-08-20T03:30:18.699Z,0.00
2022-08-20T03:30:37.255Z,0.00
2022-08-20T03:31:08.248Z,0.00
2022-08-20T03:31:39.265Z,0.00
2022-08-20T03:32:10.325Z,0.00
2022-08-20T03:32:41.247Z,0.00
2022-08-20T03:33:12.234Z,0.00
2022-08-20T03:33:52.769Z,0.00
2022-08-20T03:34:14.233Z,0.00
2022-08-20T03:34:46.333Z,0.00
2022-08-20T03:35:16.245Z,0.00
2022-08-20T03:35:47.245Z,0.00
2022-08-20T03:36:20.009Z,0.00
2022-08-20T03:36:49.322Z,0.00
2022-08-20T03:37:20.301Z,0.00
2022-08-20T03:37:51.332Z,0.00
2022-08-20T03:38:33.284Z,0.00
2022-08-20T03:38:53.335Z,0.00
2022-08-20T03:39:24.227Z,0.00
2022-08-20T03:39:56.302Z,0.00
2022-08-20T03:40:26.229Z,0.00
2022-08-20T03:40:57.341Z,0.00
2022-08-20T03:41:28.244Z,0.00
2022-08-20T03:41:59.251Z,0.00
2022-08-20T03:42:30.250Z,0.00
2022-08-20T03:43:01.332Z,0.00
2022-08-20T03:43:32.273Z,0.00
2022-08-20T03:44:03.277Z,0.00
2022-08-20T03:44:34.559Z,0.00
2022-08-20T03:45:20.580Z,0.00
2022-08-20T03:45:36.285Z,0.00
2022-08-20T03:46:07.271Z,0.00
2022-08-20T03:46:38.252Z,0.00
2022-08-20T03:47:09.338Z,0.00
2022-08-20T03:47:40.271Z,0.00
2022-08-20T03:48:11.260Z,0.00
2022-08-20T03:48:42.297Z,0.00
2022-08-20T03:49:13.257Z,0.00
2022-08-20T03:49:44.246Z,0.00
2022-08-20T03:50:22.931Z,0.00
2022-08-20T03:50:46.263Z,0.00
2022-08-20T03:51:17.249Z,0.00
2022-08-20T03:51:58.359Z,0.00
2022-08-20T03:52:19.335Z,0.00
2022-08-20T03:52:50.284Z,0.00
2022-08-20T03:53:21.272Z,0.00
2022-08-20T03:53:52.240Z,0.00
2022-08-20T03:54:23.292Z,0.00
2022-08-20T03:54:54.266Z,0.00
2022-08-20T03:55:26.214Z,0.00
2022-08-20T03:55:59.309Z,0.00
2022-08-20T03:56:27.252Z,0.00
2022-08-20T03:56:58.225Z,0.00
2022-08-20T03:57:29.227Z,0.00
2022-08-20T03:58:00.302Z,0.00
2022-08-20T03:58:34.812Z,0.00
2022-08-20T03:59:02.356Z,0.00
2022-08-20T03:59:33.271Z,0.00
2022-08-20T04:00:16.755Z,0.00
2022-08-20T04:00:36.246Z,0.00
2022-08-20T04:01:06.350Z,0.00
2022-08-20T04:01:45.458Z,0.00
2022-08-20T04:02:08.282Z,0.00
2022-08-20T04:02:39.251Z,0.00
2022-08-20T04:03:10.242Z,0.00
2022-08-20T04:03:41.286Z,0.00
2022-08-20T04:04:12.836Z,0.00
2022-08-20T04:04:43.243Z,0.00
2022-08-20T04:05:14.222Z,0.00
2022-08-20T04:05:46.219Z,0.00
2022-08-20T04:06:16.422Z,0.00
2022-08-20T04:06:47.294Z,0.00
2022-08-20T04:07:18.319Z,0.00
2022-08-20T04:07:49.307Z,0.00
2022-08-20T04:08:20.312Z,0.00
2022-08-20T04:08:51.293Z,0.00
2022-08-20T04:09:22.274Z,0.00
2022-08-20T04:09:53.415Z,0.00
2022-08-20T04:10:24.331Z,0.00
2022-08-20T04:10:56.282Z,0.00
2022-08-20T04:11:26.249Z,0.00
2022-08-20T04:11:57.309Z,0.00
2022-08-20T04:12:28.269Z,0.00
2022-08-20T04:12:59.405Z,0.00
2022-08-20T04:13:30.496Z,0.00
2022-08-20T04:14:01.322Z,0.00
2022-08-20T04:14:32.318Z,0.00
2022-08-20T04:15:15.811Z,0.00
2022-08-20T04:15:34.382Z,0.00
2022-08-20T04:16:06.312Z,0.00
2022-08-20T04:16:36.360Z,0.00
2022-08-20T04:17:07.272Z,0.00
2022-08-20T04:17:38.237Z,0.00
2022-08-20T04:18:09.233Z,0.00
2022-08-20T04:18:40.297Z,0.00
2022-08-20T04:19:11.255Z,0.00
2022-08-20T04:19:42.230Z,0.36
2022-08-20T04:20:13.338Z,0.00
2022-08-20T04:20:44.230Z,0.00
2022-08-20T04:21:16.303Z,0.36
2022-08-20T04:21:46.336Z,0.85
2022-08-20T04:22:17.236Z,0.00
2022-08-20T04:22:50.793Z,0.00
2022-08-20T04:23:19.368Z,0.85
2022-08-20T04:23:50.314Z,0.85
2022-08-20T04:24:22.162Z,0.36
2022-08-20T04:24:52.329Z,0.85
2022-08-20T04:25:23.998Z,1.22
2022-08-20T04:25:54.321Z,0.85
2022-08-20T04:26:26.310Z,1.22
2022-08-20T04:26:56.322Z,1.71
2022-08-20T04:27:27.319Z,1.71
2022-08-20T04:27:58.701Z,1.71
2022-08-20T04:28:29.314Z,1.71
2022-08-20T04:29:00.459Z,2.08
2022-08-20T04:29:32.163Z,2.57
2022-08-20T04:30:14.863Z,2.57
2022-08-20T04:30:33.438Z,2.94
2022-08-20T04:31:04.416Z,2.57
2022-08-20T04:31:36.404Z,2.57
2022-08-20T04:32:06.395Z,3.43
2022-08-20T04:32:37.357Z,2.94
2022-08-20T04:33:08.378Z,3.79
2022-08-20T04:33:39.337Z,3.43
2022-08-20T04:34:10.397Z,4.77
2022-08-20T04:34:41.370Z,3.79
2022-08-20T04:35:12.442Z,3.79
2022-08-20T04:35:43.325Z,4.28
2022-08-20T04:36:14.422Z,4.77
2022-08-20T04:36:46.406Z,4.28
2022-08-20T04:37:17.243Z,4.28
2022-08-20T04:37:47.364Z,5.14
2022-08-20T04:38:18.342Z,4.28
2022-08-20T04:38:50.856Z,4.28
2022-08-20T04:39:20.364Z,4.77
2022-08-20T04:39:51.479Z,3.79
2022-08-20T04:40:22.416Z,4.28
2022-08-20T04:40:53.410Z,4.28
2022-08-20T04:41:24.491Z,4.28
2022-08-20T04:41:56.405Z,3.43
2022-08-20T04:42:26.402Z,3.79
2022-08-20T04:42:57.325Z,3.79
2022-08-20T04:43:28.358Z,3.43
2022-08-20T04:43:59.365Z,3.79
2022-08-20T04:44:30.430Z,3.43
2022-08-20T04:45:13.863Z,3.79
2022-08-20T04:45:32.358Z,2.94
2022-08-20T04:46:03.423Z,3.43
2022-08-20T04:46:34.446Z,3.43
2022-08-20T04:47:06.463Z,3.43
2022-08-20T04:47:36.372Z,3.43
2022-08-20T04:48:10.545Z,2.94
2022-08-20T04:48:38.359Z,2.94
2022-08-20T04:49:09.394Z,3.43
2022-08-20T04:49:40.399Z,3.43
2022-08-20T04:50:11.394Z,2.94
2022-08-20T04:50:42.413Z,3.43
2022-08-20T04:51:13.390Z,2.94
2022-08-20T04:51:44.363Z,3.79
2022-08-20T04:52:16.392Z,2.57
2022-08-20T04:52:46.411Z,2.57
2022-08-20T04:53:17.337Z,2.57
2022-08-20T04:53:52.231Z,2.57
2022-08-20T04:54:19.426Z,2.94
2022-08-20T04:54:50.328Z,2.94
2022-08-20T04:55:21.398Z,3.43
2022-08-20T04:55:52.350Z,3.43
2022-08-20T04:56:23.797Z,2.94
2022-08-20T04:56:54.406Z,2.94
2022-08-20T04:57:26.381Z,3.43
2022-08-20T04:57:56.482Z,2.94
2022-08-20T04:58:27.410Z,2.94
2022-08-20T04:58:58.329Z,3.43
2022-08-20T04:59:29.358Z,2.94
2022-08-20T05:00:12.811Z,2.57
2022-08-20T05:00:31.431Z,3.43
2022-08-20T05:01:02.516Z,3.43
2022-08-20T05:01:33.424Z,3.43
2022-08-20T05:02:04.443Z,3.79
2022-08-20T05:02:36.414Z,2.94
2022-08-20T05:03:06.401Z,2.94
2022-08-20T05:03:37.375Z,2.94
2022-08-20T05:04:08.405Z,2.94
2022-08-20T05:04:39.498Z,3.43
2022-08-20T05:05:10.454Z,3.79
2022-08-20T05:05:41.406Z,3.43
2022-08-20T05:06:12.446Z,3.43
2022-08-20T05:06:43.430Z,3.79
2022-08-20T05:07:14.360Z,3.43
2022-08-20T05:07:46.403Z,4.28
2022-08-20T05:08:19.701Z,3.43
2022-08-20T05:08:47.389Z,3.43
2022-08-20T05:09:18.392Z,4.77
2022-08-20T05:09:49.464Z,4.28
2022-08-20T05:10:20.297Z,3.79
2022-08-20T05:10:51.391Z,4.28
2022-08-20T05:11:35.287Z,4.28
2022-08-20T05:11:53.477Z,4.28
2022-08-20T05:12:24.286Z,4.77
2022-08-20T05:12:57.198Z,5.14
2022-08-20T05:13:27.514Z,3.79
2022-08-20T05:13:57.363Z,4.28
2022-08-20T05:14:28.396Z,5.14
2022-08-20T05:14:59.594Z,4.77
2022-08-20T05:15:42.726Z,4.77
2022-08-20T05:16:01.418Z,4.77
2022-08-20T05:16:32.352Z,5.14
2022-08-20T05:17:03.439Z,5.63
2022-08-20T05:17:34.389Z,5.63
2022-08-20T05:18:06.483Z,5.14
2022-08-20T05:18:36.428Z,5.63
2022-08-20T05:19:07.449Z,5.63
2022-08-20T05:19:38.968Z,5.99
2022-08-20T05:20:09.406Z,5.63
2022-08-20T05:20:40.338Z,5.63
2022-08-20T05:21:11.349Z,5.63
2022-08-20T05:21:42.401Z,6.48
2022-08-20T05:22:13.348Z,5.99
2022-08-20T05:22:44.397Z,6.48
2022-08-20T05:23:16.411Z,6.48
2022-08-20T05:23:46.373Z,6.48
2022-08-20T05:24:17.324Z,6.48
2022-08-20T05:24:48.444Z,6.48
2022-08-20T05:25:19.407Z,6.48
2022-08-20T05:25:50.342Z,6.85
2022-08-20T05:26:21.371Z,6.85
2022-08-20T05:26:52.367Z,7.34
2022-08-20T05:27:24.909Z,6.85
2022-08-20T05:27:54.495Z,6.48
2022-08-20T05:28:26.368Z,6.85
2022-08-20T05:28:58.797Z,7.34
2022-08-20T05:29:27.385Z,6.85
2022-08-20T05:29:58.425Z,7.34
2022-08-20T05:30:41.700Z,7.70
2022-08-20T05:31:00.421Z,7.70
2022-08-20T05:31:33.298Z,7.34
2022-08-20T05:32:02.450Z,7.70
2022-08-20T05:32:33.333Z,7.70
2022-08-20T05:33:04.418Z,7.70
2022-08-20T05:33:36.391Z,7.70
2022-08-20T05:34:06.436Z,7.70
2022-08-20T05:34:37.345Z,8.56
2022-08-20T05:35:08.461Z,7.70
2022-08-20T05:35:39.410Z,7.34
2022-08-20T05:36:10.401Z,8.56
2022-08-20T05:36:41.388Z,8.56
2022-08-20T05:37:12.487Z,8.19
2022-08-20T05:37:43.345Z,7.70
2022-08-20T05:38:14.329Z,8.19
2022-08-20T05:38:49.793Z,7.70
2022-08-20T05:39:16.446Z,8.19
2022-08-20T05:39:47.394Z,8.56
2022-08-20T05:40:18.527Z,8.19
2022-08-20T05:40:49.344Z,9.05
2022-08-20T05:41:27.633Z,9.54
2022-08-20T05:41:51.530Z,8.56
2022-08-20T05:42:22.338Z,9.05
2022-08-20T05:42:53.349Z,9.05
2022-08-20T05:43:24.362Z,9.05
2022-08-20T05:43:56.572Z,9.05
2022-08-20T05:44:26.375Z,9.54
2022-08-20T05:44:57.388Z,10.39
2022-08-20T05:45:40.777Z,9.91
2022-08-20T05:45:59.416Z,10.77
2022-08-20T05:46:30.342Z,10.39
2022-08-20T05:47:01.422Z,10.39
2022-08-20T05:47:32.383Z,10.77
2022-08-20T05:48:03.557Z,10.77
2022-08-20T05:48:34.447Z,11.25
2022-08-20T05:49:06.413Z,12.11
2022-08-20T05:49:36.466Z,11.62
2022-08-20T05:50:07.380Z,11.62
2022-08-20T05:50:38.348Z,12.48
2022-08-20T05:51:13.269Z,13.33
2022-08-20T05:51:40.336Z,12.97
2022-08-20T05:52:11.319Z,13.82
2022-08-20T05:52:42.378Z,13.33
2022-08-20T05:53:13.356Z,13.82
2022-08-20T05:53:44.415Z,13.82
2022-08-20T05:54:16.422Z,14.68
2022-08-20T05:54:46.423Z,14.31
2022-08-20T05:55:17.362Z,14.31
2022-08-20T05:55:48.337Z,15.17
2022-08-20T05:56:19.391Z,15.17
2022-08-20T05:56:50.373Z,15.53
2022-08-20T05:57:21.387Z,15.53
2022-08-20T05:57:52.373Z,16.02
2022-08-20T05:58:23.389Z,16.39
2022-08-20T05:58:54.383Z,16.39
2022-08-20T05:59:26.426Z,16.39
2022-08-20T05:59:56.596Z,16.88
2022-08-20T06:00:39.782Z,16.88
2022-08-20T06:00:58.476Z,17.25
2022-08-20T06:01:29.393Z,16.88
2022-08-20T06:02:00.346Z,17.25
2022-08-20T06:02:31.415Z,18.11
2022-08-20T06:03:02.457Z,18.11
2022-08-20T06:03:33.382Z,18.11
2022-08-20T06:04:04.498Z,19.94
2022-08-20T06:04:36.366Z,19.45
2022-08-20T06:05:06.439Z,20.31
2022-08-20T06:05:37.349Z,20.31
2022-08-20T06:06:17.957Z,20.31
2022-08-20T06:07:10.344Z,21.16
2022-08-20T06:07:41.368Z,21.65
2022-08-20T06:08:12.375Z,21.65
2022-08-20T06:08:43.346Z,21.65
2022-08-20T06:09:14.312Z,21.65
2022-08-20T06:09:46.339Z,22.02
2022-08-20T06:10:16.477Z,22.51
2022-08-20T06:10:47.393Z,23.36
2022-08-20T06:11:18.367Z,23.36
2022-08-20T06:11:49.367Z,23.36
2022-08-20T06:12:20.341Z,23.85
2022-08-20T06:12:51.379Z,24.71
2022-08-20T06:13:22.307Z,25.56
2022-08-20T06:13:53.452Z,25.94
2022-08-20T06:14:24.350Z,25.94
2022-08-20T06:14:56.325Z,25.56
2022-08-20T06:15:38.678Z,25.94
2022-08-20T06:15:57.368Z,27.28
2022-08-20T06:16:29.075Z,26.79
2022-08-20T06:16:59.318Z,27.28
2022-08-20T06:17:39.249Z,28.99
2022-08-20T06:18:01.615Z,28.14
2022-08-20T06:18:32.299Z,27.28
2022-08-20T06:19:03.401Z,27.65
2022-08-20T06:19:34.398Z,27.65
2022-08-20T06:20:06.347Z,29.48
2022-08-20T06:20:36.339Z,27.65
2022-08-20T06:21:07.354Z,29.85
2022-08-20T06:21:38.388Z,29.85
2022-08-20T06:22:19.016Z,28.99
2022-08-20T06:22:40.442Z,27.65
2022-08-20T06:23:11.376Z,28.63
2022-08-20T06:23:56.608Z,26.79
2022-08-20T06:24:13.363Z,26.42
2022-08-20T06:24:44.331Z,27.28
2022-08-20T06:25:16.582Z,28.63
2022-08-20T06:25:46.410Z,29.85
2022-08-20T06:26:30.435Z,28.63
2022-08-20T06:26:48.382Z,28.14
2022-08-20T06:27:19.321Z,29.48
2022-08-20T06:27:50.385Z,28.99
2022-08-20T06:28:21.443Z,32.42
2022-08-20T06:28:54.160Z,33.76
2022-08-20T06:29:23.384Z,33.39
2022-08-20T06:29:54.355Z,35.48
2022-08-20T06:30:38.727Z,36.82
2022-08-20T06:30:56.407Z,34.62
2022-08-20T06:31:27.599Z,33.39
2022-08-20T06:31:58.446Z,31.56
2022-08-20T06:32:32.789Z,32.05
2022-08-20T06:33:00.359Z,32.42
2022-08-20T06:33:31.337Z,34.25
2022-08-20T06:34:02.465Z,33.39
2022-08-20T06:34:33.345Z,34.25
2022-08-20T06:35:04.412Z,34.25
2022-08-20T06:35:36.325Z,33.76
2022-08-20T06:36:06.465Z,34.62
2022-08-20T06:36:37.393Z,36.82
2022-08-20T06:37:08.305Z,36.82
2022-08-20T06:37:39.294Z,39.02
2022-08-20T06:38:10.335Z,39.88
2022-08-20T06:38:41.273Z,38.53
2022-08-20T06:39:12.257Z,41.10
2022-08-20T06:39:43.342Z,44.65
2022-08-20T06:40:14.338Z,45.87
2022-08-20T06:40:46.335Z,44.65
2022-08-20T06:41:16.324Z,44.65
2022-08-20T06:41:47.419Z,46.36
2022-08-20T06:42:20.789Z,46.36
2022-08-20T06:42:49.376Z,49.42
2022-08-20T06:43:20.324Z,48.56
2022-08-20T06:43:51.416Z,49.42
2022-08-20T06:44:22.323Z,49.42
2022-08-20T06:44:53.615Z,51.14
2022-08-20T06:45:36.710Z,50.28
2022-08-20T06:45:56.362Z,51.50
2022-08-20T06:46:26.334Z,49.42
2022-08-20T06:46:57.416Z,51.14
2022-08-20T06:47:28.332Z,51.14
2022-08-20T06:47:59.513Z,51.99
2022-08-20T06:48:30.402Z,51.50
2022-08-20T06:49:01.397Z,49.79
2022-08-20T06:49:35.175Z,50.28
2022-08-20T06:50:03.369Z,50.65
2022-08-20T06:50:34.377Z,50.28
2022-08-20T06:51:06.385Z,50.28
2022-08-20T06:51:36.381Z,51.50
2022-08-20T06:52:07.309Z,52.48